sensor_id;sensor_type;location;lat;lon;timestamp;temperature;humidity
16140;DHT22;8175;49.326;12.690;2023-04-24T00:01:41;9.20;99.90
16140;DHT22;8175;49.326;12.690;2023-04-24T00:04:08;9.20;99.90
16140;DHT22;8175;49.326;12.690;2023-04-24T00:06:38;9.20;99.90
16140;DHT22;8175;49.326;12.690;2023-04-24T00:09:11;9.30;99.90
16140;DHT22;8175;49.326;12.690;2023-04-24T00:11:36;9.40;99.90
16140;DHT22;8175;49.326;12.690;2023-04-24T00:14:02;9.40;99.90
16140;DHT22;8175;49.326;12.690;2023-04-24T00:16:28;9.40;99.90
16140;DHT22;8175;49.326;12.690;2023-04-24T00:18:54;9.40;99.90
16140;DHT22;8175;49.326;12.690;2023-04-24T00:21:20;9.40;99.90
16140;DHT22;8175;49.326;12.690;2023-04-24T00:23:47;9.40;99.90
16140;DHT22;8175;49.326;12.690;2023-04-24T00:26:12;9.40;99.90
16140;DHT22;8175;49.326;12.690;2023-04-24T00:28:38;9.40;99.90
16140;DHT22;8175;49.326;12.690;2023-04-24T00:31:04;9.40;99.90
16140;DHT22;8175;49.326;12.690;2023-04-24T00:33:29;9.40;99.90
16140;DHT22;8175;49.326;12.690;2023-04-24T00:35:55;9.40;99.90
16140;DHT22;8175;49.326;12.690;2023-04-24T00:38:20;9.40;99.90
16140;DHT22;8175;49.326;12.690;2023-04-24T00:40:47;9.40;99.90
16140;DHT22;8175;49.326;12.690;2023-04-24T00:43:15;9.40;99.90
16140;DHT22;8175;49.326;12.690;2023-04-24T00:45:41;9.50;99.90
16140;DHT22;8175;49.326;12.690;2023-04-24T00:48:07;9.50;99.90
16140;DHT22;8175;49.326;12.690;2023-04-24T00:50:35;9.40;99.90
16140;DHT22;8175;49.326;12.690;2023-04-24T00:53:01;9.40;99.90
16140;DHT22;8175;49.326;12.690;2023-04-24T00:55:26;9.40;99.90
16140;DHT22;8175;49.326;12.690;2023-04-24T00:57:52;9.40;99.90
16140;DHT22;8175;49.326;12.690;2023-04-24T01:00:18;9.40;99.90
16140;DHT22;8175;49.326;12.690;2023-04-24T01:02:44;9.40;99.90
16140;DHT22;8175;49.326;12.690;2023-04-24T01:05:14;9.40;99.90
16140;DHT22;8175;49.326;12.690;2023-04-24T01:07:45;9.40;99.90
16140;DHT22;8175;49.326;12.690;2023-04-24T01:10:14;9.50;99.90
16140;DHT22;8175;49.326;12.690;2023-04-24T01:12:40;9.50;99.90
16140;DHT22;8175;49.326;12.690;2023-04-24T01:15:06;9.40;99.90
16140;DHT22;8175;49.326;12.690;2023-04-24T01:17:32;9.40;99.90
16140;DHT22;8175;49.326;12.690;2023-04-24T01:19:59;9.40;99.90
16140;DHT22;8175;49.326;12.690;2023-04-24T01:22:26;9.40;99.90
16140;DHT22;8175;49.326;12.690;2023-04-24T01:24:53;9.40;99.90
16140;DHT22;8175;49.326;12.690;2023-04-24T01:27:19;9.50;99.90
16140;DHT22;8175;49.326;12.690;2023-04-24T01:29:46;9.40;99.90
16140;DHT22;8175;49.326;12.690;2023-04-24T01:32:14;9.40;99.90
16140;DHT22;8175;49.326;12.690;2023-04-24T01:34:40;9.40;99.90
16140;DHT22;8175;49.326;12.690;2023-04-24T01:37:06;9.40;99.90
16140;DHT22;8175;49.326;12.690;2023-04-24T01:39:32;9.30;99.90
16140;DHT22;8175;49.326;12.690;2023-04-24T01:41:59;9.30;99.90
16140;DHT22;8175;49.326;12.690;2023-04-24T01:44:27;9.30;99.90
16140;DHT22;8175;49.326;12.690;2023-04-24T05:06:34;9.20;99.90
16140;DHT22;8175;49.326;12.690;2023-04-24T05:09:00;9.30;99.90
16140;DHT22;8175;49.326;12.690;2023-04-24T05:11:26;9.40;99.90
16140;DHT22;8175;49.326;12.690;2023-04-24T05:13:51;9.40;99.90
16140;DHT22;8175;49.326;12.690;2023-04-24T05:16:17;9.40;99.90
16140;DHT22;8175;49.326;12.690;2023-04-24T05:18:42;9.50;99.90
16140;DHT22;8175;49.326;12.690;2023-04-24T05:21:08;9.50;99.90
16140;DHT22;8175;49.326;12.690;2023-04-24T05:23:34;9.50;99.90
16140;DHT22;8175;49.326;12.690;2023-04-24T05:25:59;9.50;99.90
16140;DHT22;8175;49.326;12.690;2023-04-24T05:28:25;9.60;99.90
16140;DHT22;8175;49.326;12.690;2023-04-24T05:30:54;9.60;99.90
16140;DHT22;8175;49.326;12.690;2023-04-24T05:33:21;9.60;99.90
16140;DHT22;8175;49.326;12.690;2023-04-24T05:35:48;9.70;99.90
16140;DHT22;8175;49.326;12.690;2023-04-24T05:38:14;9.70;99.90
16140;DHT22;8175;49.326;12.690;2023-04-24T05:40:43;9.70;99.90
16140;DHT22;8175;49.326;12.690;2023-04-24T05:43:08;9.70;99.90
16140;DHT22;8175;49.326;12.690;2023-04-24T05:45:34;9.70;99.90
16140;DHT22;8175;49.326;12.690;2023-04-24T05:48:02;9.70;99.90
16140;DHT22;8175;49.326;12.690;2023-04-24T05:50:27;9.70;99.90
16140;DHT22;8175;49.326;12.690;2023-04-24T05:52:53;9.80;99.90
16140;DHT22;8175;49.326;12.690;2023-04-24T05:55:19;9.70;99.90
16140;DHT22;8175;49.326;12.690;2023-04-24T05:57:44;9.70;99.90
16140;DHT22;8175;49.326;12.690;2023-04-24T06:00:11;9.80;99.90
16140;DHT22;8175;49.326;12.690;2023-04-24T06:02:39;9.80;99.90
16140;DHT22;8175;49.326;12.690;2023-04-24T06:05:05;9.90;99.90
16140;DHT22;8175;49.326;12.690;2023-04-24T06:07:31;9.90;99.90
16140;DHT22;8175;49.326;12.690;2023-04-24T06:09:57;10.00;99.90
16140;DHT22;8175;49.326;12.690;2023-04-24T06:12:23;10.20;99.90
16140;DHT22;8175;49.326;12.690;2023-04-24T06:14:48;10.20;99.90
16140;DHT22;8175;49.326;12.690;2023-04-24T06:17:15;10.30;99.90
16140;DHT22;8175;49.326;12.690;2023-04-24T06:19:40;10.30;99.90
16140;DHT22;8175;49.326;12.690;2023-04-24T06:22:06;10.40;99.90
16140;DHT22;8175;49.326;12.690;2023-04-24T06:24:34;10.50;99.90
16140;DHT22;8175;49.326;12.690;2023-04-24T06:27:00;10.60;99.90
16140;DHT22;8175;49.326;12.690;2023-04-24T06:29:25;10.70;99.90
16140;DHT22;8175;49.326;12.690;2023-04-24T06:31:51;10.70;99.90
16140;DHT22;8175;49.326;12.690;2023-04-24T06:34:17;10.80;99.90
16140;DHT22;8175;49.326;12.690;2023-04-24T06:36:42;10.70;99.90
16140;DHT22;8175;49.326;12.690;2023-04-24T06:39:08;10.60;99.90
16140;DHT22;8175;49.326;12.690;2023-04-24T06:41:34;10.70;99.90
16140;DHT22;8175;49.326;12.690;2023-04-24T06:44:00;10.80;99.90
16140;DHT22;8175;49.326;12.690;2023-04-24T06:46:26;10.90;99.90
16140;DHT22;8175;49.326;12.690;2023-04-24T06:48:53;11.00;99.90
16140;DHT22;8175;49.326;12.690;2023-04-24T06:51:25;11.00;99.90
16140;DHT22;8175;49.326;12.690;2023-04-24T06:53:52;11.10;99.90
16140;DHT22;8175;49.326;12.690;2023-04-24T06:56:19;11.20;99.90
16140;DHT22;8175;49.326;12.690;2023-04-24T06:58:44;11.20;99.90
16140;DHT22;8175;49.326;12.690;2023-04-24T07:01:11;11.30;99.90
16140;DHT22;8175;49.326;12.690;2023-04-24T07:03:36;11.40;99.90
16140;DHT22;8175;49.326;12.690;2023-04-24T07:06:02;11.50;99.90
16140;DHT22;8175;49.326;12.690;2023-04-24T07:08:29;11.50;99.90
16140;DHT22;8175;49.326;12.690;2023-04-24T07:10:56;11.40;99.90
16140;DHT22;8175;49.326;12.690;2023-04-24T07:13:22;11.20;99.90
16140;DHT22;8175;49.326;12.690;2023-04-24T07:15:48;11.30;99.90
16140;DHT22;8175;49.326;12.690;2023-04-24T07:18:16;11.50;99.90
16140;DHT22;8175;49.326;12.690;2023-04-24T07:20:42;11.70;99.90
16140;DHT22;8175;49.326;12.690;2023-04-24T07:23:07;11.80;99.90
16140;DHT22;8175;49.326;12.690;2023-04-24T07:25:33;11.90;99.90
16140;DHT22;8175;49.326;12.690;2023-04-24T07:27:59;12.10;99.90
16140;DHT22;8175;49.326;12.690;2023-04-24T07:30:25;11.90;99.90
16140;DHT22;8175;49.326;12.690;2023-04-24T07:32:51;12.20;99.90
16140;DHT22;8175;49.326;12.690;2023-04-24T07:35:16;12.30;99.90
16140;DHT22;8175;49.326;12.690;2023-04-24T07:37:42;12.30;99.90
16140;DHT22;8175;49.326;12.690;2023-04-24T07:40:14;12.20;99.90
16140;DHT22;8175;49.326;12.690;2023-04-24T07:42:40;12.30;99.90
16140;DHT22;8175;49.326;12.690;2023-04-24T07:45:07;12.20;99.90
16140;DHT22;8175;49.326;12.690;2023-04-24T07:47:33;12.30;99.90
16140;DHT22;8175;49.326;12.690;2023-04-24T07:49:59;12.30;99.90
16140;DHT22;8175;49.326;12.690;2023-04-24T07:52:25;12.30;99.90
16140;DHT22;8175;49.326;12.690;2023-04-24T07:54:50;12.30;99.90
16140;DHT22;8175;49.326;12.690;2023-04-24T07:57:18;12.30;99.90
16140;DHT22;8175;49.326;12.690;2023-04-24T07:59:44;12.40;99.90
16140;DHT22;8175;49.326;12.690;2023-04-24T08:02:09;12.50;99.90
16140;DHT22;8175;49.326;12.690;2023-04-24T08:04:35;12.60;99.90
16140;DHT22;8175;49.326;12.690;2023-04-24T08:07:00;12.60;99.90
16140;DHT22;8175;49.326;12.690;2023-04-24T08:09:26;12.60;99.90
16140;DHT22;8175;49.326;12.690;2023-04-24T08:11:52;12.70;99.90
16140;DHT22;8175;49.326;12.690;2023-04-24T08:14:18;12.50;99.90
16140;DHT22;8175;49.326;12.690;2023-04-24T08:16:44;12.30;99.90
16140;DHT22;8175;49.326;12.690;2023-04-24T08:19:10;12.40;99.90
16140;DHT22;8175;49.326;12.690;2023-04-24T08:21:35;12.40;99.90
16140;DHT22;8175;49.326;12.690;2023-04-24T08:24:01;12.70;99.90
16140;DHT22;8175;49.326;12.690;2023-04-24T08:26:30;13.00;99.90
16140;DHT22;8175;49.326;12.690;2023-04-24T08:28:56;13.10;99.90
16140;DHT22;8175;49.326;12.690;2023-04-24T08:31:21;13.00;99.90
16140;DHT22;8175;49.326;12.690;2023-04-24T08:33:48;13.00;99.90
16140;DHT22;8175;49.326;12.690;2023-04-24T08:36:13;13.20;99.90
16140;DHT22;8175;49.326;12.690;2023-04-24T08:38:39;12.90;99.90
16140;DHT22;8175;49.326;12.690;2023-04-24T08:41:05;12.80;99.90
16140;DHT22;8175;49.326;12.690;2023-04-24T08:43:33;12.60;99.90
16140;DHT22;8175;49.326;12.690;2023-04-24T08:46:03;12.60;99.90
16140;DHT22;8175;49.326;12.690;2023-04-24T08:48:29;13.20;99.90
16140;DHT22;8175;49.326;12.690;2023-04-24T08:50:56;13.90;99.90
16140;DHT22;8175;49.326;12.690;2023-04-24T08:53:24;14.50;99.90
16140;DHT22;8175;49.326;12.690;2023-04-24T08:55:50;14.10;99.90
16140;DHT22;8175;49.326;12.690;2023-04-24T08:58:17;14.10;99.90
16140;DHT22;8175;49.326;12.690;2023-04-24T09:00:43;14.30;99.90
16140;DHT22;8175;49.326;12.690;2023-04-24T09:03:16;14.50;99.90
16140;DHT22;8175;49.326;12.690;2023-04-24T09:05:47;14.50;99.90
16140;DHT22;8175;49.326;12.690;2023-04-24T09:08:14;14.00;99.90
16140;DHT22;8175;49.326;12.690;2023-04-24T09:10:40;13.70;99.90
16140;DHT22;8175;49.326;12.690;2023-04-24T09:13:06;13.30;99.90
16140;DHT22;8175;49.326;12.690;2023-04-24T09:15:34;12.50;99.90
16140;DHT22;8175;49.326;12.690;2023-04-24T09:18:00;10.60;99.90
16140;DHT22;8175;49.326;12.690;2023-04-24T09:20:26;9.70;99.90
16140;DHT22;8175;49.326;12.690;2023-04-24T09:22:54;9.20;99.90
16140;DHT22;8175;49.326;12.690;2023-04-24T09:25:21;8.90;99.90
16140;DHT22;8175;49.326;12.690;2023-04-24T09:27:46;8.60;99.90
16140;DHT22;8175;49.326;12.690;2023-04-24T09:30:13;8.60;99.90
16140;DHT22;8175;49.326;12.690;2023-04-24T09:32:39;8.50;99.90
16140;DHT22;8175;49.326;12.690;2023-04-24T09:35:13;8.60;99.90
16140;DHT22;8175;49.326;12.690;2023-04-24T09:37:45;8.70;99.90
16140;DHT22;8175;49.326;12.690;2023-04-24T09:40:21;8.90;99.90
16140;DHT22;8175;49.326;12.690;2023-04-24T09:42:55;9.00;99.90
16140;DHT22;8175;49.326;12.690;2023-04-24T09:45:22;9.30;99.90
16140;DHT22;8175;49.326;12.690;2023-04-24T09:47:52;9.60;99.90
16140;DHT22;8175;49.326;12.690;2023-04-24T09:50:21;9.90;99.90
16140;DHT22;8175;49.326;12.690;2023-04-24T09:52:56;10.40;99.90
16140;DHT22;8175;49.326;12.690;2023-04-24T09:55:22;11.00;99.90
16140;DHT22;8175;49.326;12.690;2023-04-24T09:57:53;11.30;99.90
16140;DHT22;8175;49.326;12.690;2023-04-24T10:00:24;11.40;99.90
16140;DHT22;8175;49.326;12.690;2023-04-24T10:02:54;11.50;99.90
16140;DHT22;8175;49.326;12.690;2023-04-24T10:05:23;11.80;99.90
16140;DHT22;8175;49.326;12.690;2023-04-24T10:07:49;12.50;99.90
16140;DHT22;8175;49.326;12.690;2023-04-24T10:10:15;13.10;99.90
16140;DHT22;8175;49.326;12.690;2023-04-24T10:12:40;13.50;99.90
16140;DHT22;8175;49.326;12.690;2023-04-24T10:15:09;14.10;99.90
16140;DHT22;8175;49.326;12.690;2023-04-24T10:17:35;14.10;99.90
16140;DHT22;8175;49.326;12.690;2023-04-24T10:20:01;13.50;99.90
16140;DHT22;8175;49.326;12.690;2023-04-24T10:22:28;13.20;99.90
16140;DHT22;8175;49.326;12.690;2023-04-24T10:24:56;12.90;99.90
16140;DHT22;8175;49.326;12.690;2023-04-24T10:27:23;12.60;99.90
16140;DHT22;8175;49.326;12.690;2023-04-24T10:29:51;12.40;99.90
16140;DHT22;8175;49.326;12.690;2023-04-24T10:32:18;12.70;99.90
16140;DHT22;8175;49.326;12.690;2023-04-24T10:34:44;13.00;99.90
16140;DHT22;8175;49.326;12.690;2023-04-24T10:37:10;13.50;99.90
16140;DHT22;8175;49.326;12.690;2023-04-24T10:39:36;14.00;99.90
16140;DHT22;8175;49.326;12.690;2023-04-24T10:42:16;14.90;99.90
16140;DHT22;8175;49.326;12.690;2023-04-24T10:44:42;14.50;99.90
16140;DHT22;8175;49.326;12.690;2023-04-24T10:47:13;13.70;99.90
16140;DHT22;8175;49.326;12.690;2023-04-24T10:49:40;13.20;99.90
16140;DHT22;8175;49.326;12.690;2023-04-24T10:52:05;12.80;99.90
16140;DHT22;8175;49.326;12.690;2023-04-24T11:00:09;14.30;99.90
16140;DHT22;8175;49.326;12.690;2023-04-24T11:02:39;14.70;99.90
16140;DHT22;8175;49.326;12.690;2023-04-24T11:05:06;13.70;99.90
16140;DHT22;8175;49.326;12.690;2023-04-24T11:08:10;13.70;99.90
16140;DHT22;8175;49.326;12.690;2023-04-24T11:10:46;14.40;99.90
16140;DHT22;8175;49.326;12.690;2023-04-24T11:13:16;15.30;99.90
16140;DHT22;8175;49.326;12.690;2023-04-24T11:15:42;15.80;99.90
16140;DHT22;8175;49.326;12.690;2023-04-24T11:18:16;15.10;99.90
16140;DHT22;8175;49.326;12.690;2023-04-24T11:20:43;14.40;99.90
16140;DHT22;8175;49.326;12.690;2023-04-24T11:23:08;13.70;99.90
16140;DHT22;8175;49.326;12.690;2023-04-24T11:25:35;13.50;99.90
16140;DHT22;8175;49.326;12.690;2023-04-24T11:28:05;13.90;99.90
16140;DHT22;8175;49.326;12.690;2023-04-24T11:30:32;14.10;99.90
16140;DHT22;8175;49.326;12.690;2023-04-24T11:33:03;13.90;99.90
16140;DHT22;8175;49.326;12.690;2023-04-24T11:35:29;14.00;99.90
16140;DHT22;8175;49.326;12.690;2023-04-24T11:37:56;14.00;99.90
16140;DHT22;8175;49.326;12.690;2023-04-24T11:40:22;14.20;99.90
16140;DHT22;8175;49.326;12.690;2023-04-24T11:42:49;14.50;99.90
16140;DHT22;8175;49.326;12.690;2023-04-24T11:47:48;14.50;99.90
16140;DHT22;8175;49.326;12.690;2023-04-24T11:50:16;14.50;99.90
16140;DHT22;8175;49.326;12.690;2023-04-24T11:52:44;14.90;99.90
16140;DHT22;8175;49.326;12.690;2023-04-24T11:57:56;17.00;99.90
16140;DHT22;8175;49.326;12.690;2023-04-24T12:00:28;17.40;96.70
16140;DHT22;8175;49.326;12.690;2023-04-24T12:03:10;16.40;99.90
16140;DHT22;8175;49.326;12.690;2023-04-24T12:05:37;15.60;99.90
16140;DHT22;8175;49.326;12.690;2023-04-24T12:08:03;16.00;99.90
16140;DHT22;8175;49.326;12.690;2023-04-24T12:10:30;17.00;99.60
16140;DHT22;8175;49.326;12.690;2023-04-24T12:12:58;18.00;93.60
16140;DHT22;8175;49.326;12.690;2023-04-24T12:15:24;17.50;92.50
16140;DHT22;8175;49.326;12.690;2023-04-24T12:17:51;16.30;95.70
16140;DHT22;8175;49.326;12.690;2023-04-24T12:20:17;15.60;97.20
16140;DHT22;8175;49.326;12.690;2023-04-24T12:22:53;14.60;99.90
16140;DHT22;8175;49.326;12.690;2023-04-24T12:25:23;14.50;99.90
16140;DHT22;8175;49.326;12.690;2023-04-24T12:28:10;14.40;99.90
16140;DHT22;8175;49.326;12.690;2023-04-24T12:30:48;13.90;99.90
16140;DHT22;8175;49.326;12.690;2023-04-24T12:33:18;13.50;99.90
16140;DHT22;8175;49.326;12.690;2023-04-24T12:35:44;13.00;99.90
16140;DHT22;8175;49.326;12.690;2023-04-24T12:38:13;12.50;99.90
16140;DHT22;8175;49.326;12.690;2023-04-24T12:40:41;12.40;99.90
16140;DHT22;8175;49.326;12.690;2023-04-24T12:43:17;12.40;99.90
16140;DHT22;8175;49.326;12.690;2023-04-24T12:45:44;12.40;99.90
16140;DHT22;8175;49.326;12.690;2023-04-24T12:48:12;12.40;99.90
16140;DHT22;8175;49.326;12.690;2023-04-24T12:50:42;12.70;99.90
16140;DHT22;8175;49.326;12.690;2023-04-24T12:53:08;13.00;99.90
16140;DHT22;8175;49.326;12.690;2023-04-24T12:55:35;13.50;99.90
16140;DHT22;8175;49.326;12.690;2023-04-24T12:58:00;13.80;99.90
16140;DHT22;8175;49.326;12.690;2023-04-24T13:00:27;14.20;99.90
16140;DHT22;8175;49.326;12.690;2023-04-24T13:02:52;14.20;99.90
16140;DHT22;8175;49.326;12.690;2023-04-24T13:05:18;14.50;99.90
16140;DHT22;8175;49.326;12.690;2023-04-24T13:07:44;15.10;99.90
16140;DHT22;8175;49.326;12.690;2023-04-24T13:10:10;15.70;99.90
16140;DHT22;8175;49.326;12.690;2023-04-24T13:12:35;16.30;99.80
16140;DHT22;8175;49.326;12.690;2023-04-24T13:15:01;15.50;99.90
16140;DHT22;8175;49.326;12.690;2023-04-24T13:17:27;14.40;99.90
16140;DHT22;8175;49.326;12.690;2023-04-24T13:19:54;13.70;99.90
16140;DHT22;8175;49.326;12.690;2023-04-24T13:22:20;13.30;99.90
16140;DHT22;8175;49.326;12.690;2023-04-24T13:24:46;13.20;99.90
16140;DHT22;8175;49.326;12.690;2023-04-24T13:27:14;13.10;99.90
16140;DHT22;8175;49.326;12.690;2023-04-24T13:29:40;12.70;99.90
16140;DHT22;8175;49.326;12.690;2023-04-24T13:32:06;12.30;99.90
16140;DHT22;8175;49.326;12.690;2023-04-24T13:34:31;11.90;99.90
16140;DHT22;8175;49.326;12.690;2023-04-24T13:36:58;11.60;99.90
16140;DHT22;8175;49.326;12.690;2023-04-24T13:39:24;11.50;99.90
16140;DHT22;8175;49.326;12.690;2023-04-24T13:41:50;11.40;99.90
16140;DHT22;8175;49.326;12.690;2023-04-24T13:44:17;11.60;99.90
16140;DHT22;8175;49.326;12.690;2023-04-24T13:46:45;11.80;99.90
16140;DHT22;8175;49.326;12.690;2023-04-24T13:49:14;12.10;99.90
16140;DHT22;8175;49.326;12.690;2023-04-24T13:51:40;12.60;99.90
16140;DHT22;8175;49.326;12.690;2023-04-24T13:54:06;13.20;99.90
16140;DHT22;8175;49.326;12.690;2023-04-24T13:56:32;13.80;99.90
16140;DHT22;8175;49.326;12.690;2023-04-24T13:58:58;14.70;99.90
16140;DHT22;8175;49.326;12.690;2023-04-24T14:01:23;14.40;99.90
16140;DHT22;8175;49.326;12.690;2023-04-24T14:03:53;13.90;99.90
16140;DHT22;8175;49.326;12.690;2023-04-24T14:06:19;13.50;96.00
16140;DHT22;8175;49.326;12.690;2023-04-24T14:08:45;13.40;98.80
16140;DHT22;8175;49.326;12.690;2023-04-24T14:11:11;13.40;99.90
16140;DHT22;8175;49.326;12.690;2023-04-24T14:13:37;13.20;99.00
16140;DHT22;8175;49.326;12.690;2023-04-24T14:16:04;13.10;99.90
16140;DHT22;8175;49.326;12.690;2023-04-24T14:18:29;13.00;99.90
16140;DHT22;8175;49.326;12.690;2023-04-24T14:20:55;13.20;99.90
16140;DHT22;8175;49.326;12.690;2023-04-24T14:23:20;13.30;99.90
16140;DHT22;8175;49.326;12.690;2023-04-24T14:25:46;13.60;99.90
16140;DHT22;8175;49.326;12.690;2023-04-24T14:28:16;13.90;97.90
16140;DHT22;8175;49.326;12.690;2023-04-24T14:30:42;13.60;96.70
16140;DHT22;8175;49.326;12.690;2023-04-24T14:33:08;13.20;96.80
16140;DHT22;8175;49.326;12.690;2023-04-24T14:35:33;12.80;97.20
16140;DHT22;8175;49.326;12.690;2023-04-24T14:38:00;12.50;97.40
16140;DHT22;8175;49.326;12.690;2023-04-24T14:40:26;12.30;99.00
16140;DHT22;8175;49.326;12.690;2023-04-24T14:42:52;12.20;99.90
16140;DHT22;8175;49.326;12.690;2023-04-24T14:45:18;12.10;99.90
16140;DHT22;8175;49.326;12.690;2023-04-24T14:47:44;11.80;98.30
16140;DHT22;8175;49.326;12.690;2023-04-24T14:50:10;11.90;99.30
16140;DHT22;8175;49.326;12.690;2023-04-24T14:52:38;12.00;97.50
16140;DHT22;8175;49.326;12.690;2023-04-24T14:55:04;12.10;98.30
16140;DHT22;8175;49.326;12.690;2023-04-24T14:57:30;12.30;99.90
16140;DHT22;8175;49.326;12.690;2023-04-24T14:59:55;12.40;98.60
16140;DHT22;8175;49.326;12.690;2023-04-24T15:02:21;12.10;98.40
16140;DHT22;8175;49.326;12.690;2023-04-24T15:04:47;12.10;99.90
16140;DHT22;8175;49.326;12.690;2023-04-24T15:07:12;12.20;99.90
16140;DHT22;8175;49.326;12.690;2023-04-24T15:09:38;12.40;99.90
16140;DHT22;8175;49.326;12.690;2023-04-24T15:12:04;12.20;99.60
16140;DHT22;8175;49.326;12.690;2023-04-24T15:14:30;12.10;99.90
16140;DHT22;8175;49.326;12.690;2023-04-24T15:16:55;12.00;99.90
16140;DHT22;8175;49.326;12.690;2023-04-24T15:19:21;11.80;99.90
16140;DHT22;8175;49.326;12.690;2023-04-24T15:21:46;11.70;99.90
16140;DHT22;8175;49.326;12.690;2023-04-24T15:24:12;11.60;99.90
16140;DHT22;8175;49.326;12.690;2023-04-24T15:26:38;11.60;99.90
16140;DHT22;8175;49.326;12.690;2023-04-24T15:29:04;11.80;99.90
16140;DHT22;8175;49.326;12.690;2023-04-24T15:31:29;12.10;99.90
16140;DHT22;8175;49.326;12.690;2023-04-24T15:33:55;12.30;99.90
16140;DHT22;8175;49.326;12.690;2023-04-24T15:36:21;12.30;99.90
16140;DHT22;8175;49.326;12.690;2023-04-24T15:38:47;12.20;99.90
16140;DHT22;8175;49.326;12.690;2023-04-24T15:41:13;12.20;99.90
16140;DHT22;8175;49.326;12.690;2023-04-24T15:43:38;12.10;99.90
16140;DHT22;8175;49.326;12.690;2023-04-24T15:46:06;11.90;99.90
16140;DHT22;8175;49.326;12.690;2023-04-24T15:48:32;11.60;99.90
16140;DHT22;8175;49.326;12.690;2023-04-24T15:50:58;11.60;99.90
16140;DHT22;8175;49.326;12.690;2023-04-24T15:53:24;11.40;99.90
16140;DHT22;8175;49.326;12.690;2023-04-24T15:55:51;11.00;99.90
16140;DHT22;8175;49.326;12.690;2023-04-24T15:58:18;10.90;99.90
16140;DHT22;8175;49.326;12.690;2023-04-24T16:00:44;10.80;99.90
16140;DHT22;8175;49.326;12.690;2023-04-24T16:03:11;10.70;99.90
16140;DHT22;8175;49.326;12.690;2023-04-24T16:05:36;10.50;99.90
16140;DHT22;8175;49.326;12.690;2023-04-24T16:08:02;10.20;99.90
16140;DHT22;8175;49.326;12.690;2023-04-24T16:10:27;9.80;99.90
16140;DHT22;8175;49.326;12.690;2023-04-24T16:12:53;9.50;99.90
16140;DHT22;8175;49.326;12.690;2023-04-24T16:15:20;9.50;99.90
16140;DHT22;8175;49.326;12.690;2023-04-24T16:17:46;9.60;99.90
16140;DHT22;8175;49.326;12.690;2023-04-24T16:20:13;9.70;99.90
16140;DHT22;8175;49.326;12.690;2023-04-24T16:22:38;9.90;99.90
16140;DHT22;8175;49.326;12.690;2023-04-24T16:25:05;10.20;99.90
16140;DHT22;8175;49.326;12.690;2023-04-24T16:27:31;10.40;99.90
16140;DHT22;8175;49.326;12.690;2023-04-24T16:29:58;10.60;99.90
16140;DHT22;8175;49.326;12.690;2023-04-24T16:32:24;10.70;99.90
16140;DHT22;8175;49.326;12.690;2023-04-24T16:34:49;10.70;99.90
16140;DHT22;8175;49.326;12.690;2023-04-24T16:37:15;10.60;99.90
16140;DHT22;8175;49.326;12.690;2023-04-24T16:39:42;10.40;99.90
16140;DHT22;8175;49.326;12.690;2023-04-24T16:42:11;10.30;99.90
16140;DHT22;8175;49.326;12.690;2023-04-24T16:44:38;10.30;99.90
16140;DHT22;8175;49.326;12.690;2023-04-24T16:47:07;10.40;99.90
16140;DHT22;8175;49.326;12.690;2023-04-24T16:49:33;10.50;99.90
16140;DHT22;8175;49.326;12.690;2023-04-24T16:51:59;10.50;99.90
16140;DHT22;8175;49.326;12.690;2023-04-24T16:54:25;10.50;99.90
16140;DHT22;8175;49.326;12.690;2023-04-24T16:56:52;10.50;99.90
16140;DHT22;8175;49.326;12.690;2023-04-24T16:59:18;10.60;99.90
16140;DHT22;8175;49.326;12.690;2023-04-24T17:01:43;10.60;99.90
16140;DHT22;8175;49.326;12.690;2023-04-24T17:04:09;10.60;99.90
16140;DHT22;8175;49.326;12.690;2023-04-24T17:06:35;10.50;99.90
16140;DHT22;8175;49.326;12.690;2023-04-24T17:09:01;10.30;99.90
16140;DHT22;8175;49.326;12.690;2023-04-24T17:11:28;10.30;99.90
16140;DHT22;8175;49.326;12.690;2023-04-24T17:13:53;10.30;99.90
16140;DHT22;8175;49.326;12.690;2023-04-24T17:16:19;10.30;99.90
16140;DHT22;8175;49.326;12.690;2023-04-24T17:18:45;10.40;99.90
16140;DHT22;8175;49.326;12.690;2023-04-24T17:21:10;10.40;99.90
16140;DHT22;8175;49.326;12.690;2023-04-24T17:23:36;10.40;99.90
16140;DHT22;8175;49.326;12.690;2023-04-24T17:26:02;10.30;99.90
16140;DHT22;8175;49.326;12.690;2023-04-24T17:28:32;10.20;99.90
16140;DHT22;8175;49.326;12.690;2023-04-24T17:30:58;10.30;99.90
16140;DHT22;8175;49.326;12.690;2023-04-24T17:33:29;10.30;99.90
16140;DHT22;8175;49.326;12.690;2023-04-24T17:35:58;10.30;99.90
16140;DHT22;8175;49.326;12.690;2023-04-24T17:38:27;10.20;99.90
16140;DHT22;8175;49.326;12.690;2023-04-24T17:40:52;10.20;99.90
16140;DHT22;8175;49.326;12.690;2023-04-24T17:43:22;10.00;99.90
16140;DHT22;8175;49.326;12.690;2023-04-24T17:45:49;9.80;99.90
16140;DHT22;8175;49.326;12.690;2023-04-24T17:48:15;9.70;99.90
16140;DHT22;8175;49.326;12.690;2023-04-24T17:50:42;9.60;99.90
16140;DHT22;8175;49.326;12.690;2023-04-24T17:53:08;9.40;99.90
16140;DHT22;8175;49.326;12.690;2023-04-24T17:55:35;9.30;99.90
16140;DHT22;8175;49.326;12.690;2023-04-24T17:58:01;9.20;99.90
16140;DHT22;8175;49.326;12.690;2023-04-24T18:00:31;9.10;99.90
16140;DHT22;8175;49.326;12.690;2023-04-24T18:02:57;9.10;99.90
16140;DHT22;8175;49.326;12.690;2023-04-24T18:05:36;8.90;99.90
16140;DHT22;8175;49.326;12.690;2023-04-24T18:08:03;8.90;99.90
16140;DHT22;8175;49.326;12.690;2023-04-24T18:10:30;8.80;99.90
16140;DHT22;8175;49.326;12.690;2023-04-24T18:12:57;8.70;99.90
16140;DHT22;8175;49.326;12.690;2023-04-24T18:15:23;8.70;99.90
16140;DHT22;8175;49.326;12.690;2023-04-24T18:17:49;8.70;99.90
16140;DHT22;8175;49.326;12.690;2023-04-24T18:20:16;8.70;99.90
16140;DHT22;8175;49.326;12.690;2023-04-24T18:22:43;8.70;99.90
16140;DHT22;8175;49.326;12.690;2023-04-24T18:25:09;8.70;99.90
16140;DHT22;8175;49.326;12.690;2023-04-24T18:27:36;8.60;99.90
16140;DHT22;8175;49.326;12.690;2023-04-24T18:30:02;8.60;99.90
16140;DHT22;8175;49.326;12.690;2023-04-24T18:32:28;8.50;99.90
16140;DHT22;8175;49.326;12.690;2023-04-24T18:34:54;8.20;99.90
16140;DHT22;8175;49.326;12.690;2023-04-24T18:37:20;7.90;99.90
16140;DHT22;8175;49.326;12.690;2023-04-24T18:39:46;7.80;99.90
16140;DHT22;8175;49.326;12.690;2023-04-24T18:42:11;7.60;99.90
16140;DHT22;8175;49.326;12.690;2023-04-24T18:44:37;7.50;99.90
16140;DHT22;8175;49.326;12.690;2023-04-24T18:47:07;7.50;99.90
16140;DHT22;8175;49.326;12.690;2023-04-24T18:49:33;7.40;99.90
16140;DHT22;8175;49.326;12.690;2023-04-24T18:51:59;7.20;99.90
16140;DHT22;8175;49.326;12.690;2023-04-24T18:54:24;7.20;99.90
16140;DHT22;8175;49.326;12.690;2023-04-24T18:56:50;7.10;99.90
16140;DHT22;8175;49.326;12.690;2023-04-24T18:59:16;7.10;99.90
16140;DHT22;8175;49.326;12.690;2023-04-24T19:01:42;7.00;99.90
16140;DHT22;8175;49.326;12.690;2023-04-24T19:04:07;7.10;99.90